createdAt,value
2023-01-06T00:04:38.816Z,3.50
2023-01-06T00:09:34.246Z,3.50
2023-01-06T00:12:01.376Z,3.80
2023-01-06T00:14:28.076Z,2.40
2023-01-06T00:16:54.758Z,2.20
2023-01-06T00:19:21.506Z,1.20
2023-01-06T00:24:14.834Z,2.60
2023-01-06T00:26:41.522Z,2.10
2023-01-06T00:29:10.031Z,1.70
2023-01-06T00:31:39.780Z,3.40
2023-01-06T00:34:09.368Z,2.20
2023-01-06T00:36:36.095Z,3.30
2023-01-06T00:39:05.679Z,1.90
2023-01-06T00:41:51.120Z,1.40
2023-01-06T00:44:17.852Z,2.50
2023-01-06T00:46:44.616Z,1.90
2023-01-06T00:51:39.429Z,1.20
2023-01-06T00:54:07.566Z,4.20
2023-01-06T00:56:42.225Z,2.70
2023-01-06T00:59:09.591Z,4.30
2023-01-06T01:01:36.367Z,1.70
2023-01-06T01:06:29.967Z,2.80
2023-01-06T01:08:58.735Z,1.20
2023-01-06T01:11:44.164Z,1.90
2023-01-06T01:14:11.500Z,2.00
2023-01-06T01:16:38.464Z,1.50
2023-01-06T01:19:05.445Z,0.90
2023-01-06T01:21:32.219Z,1.50
2023-01-06T01:23:58.938Z,1.90
2023-01-06T01:26:25.625Z,2.80
2023-01-06T01:31:20.501Z,0.90
2023-01-06T01:33:47.335Z,3.20
2023-01-06T01:38:41.526Z,1.40
2023-01-06T01:43:46.760Z,3.70
2023-01-06T01:46:14.979Z,2.90
2023-01-06T01:48:41.744Z,3.90
2023-01-06T01:51:16.437Z,2.90
2023-01-06T01:53:46.936Z,4.10
2023-01-06T01:56:17.809Z,4.10
2023-01-06T01:59:09.221Z,3.90
2023-01-06T02:01:36.062Z,3.60
2023-01-06T02:04:03.209Z,3.40
2023-01-06T02:06:29.930Z,3.20
2023-01-06T02:09:00.298Z,2.60
2023-01-06T02:11:27.491Z,3.00
2023-01-06T02:13:57.806Z,3.30
2023-01-06T02:16:39.808Z,3.00
2023-01-06T02:19:20.272Z,5.70
2023-01-06T02:22:08.277Z,3.90
2023-01-06T02:27:21.379Z,2.70
2023-01-06T02:30:23.640Z,1.50
2023-01-06T02:35:39.420Z,1.60
2023-01-06T02:38:55.211Z,1.30
2023-01-06T02:41:29.705Z,2.20
2023-01-06T02:44:32.120Z,0.80
2023-01-06T02:47:21.119Z,1.30
2023-01-06T02:49:52.310Z,1.30
2023-01-06T02:52:33.455Z,1.40
2023-01-06T02:55:22.783Z,1.90
2023-01-06T02:57:57.363Z,1.20
2023-01-06T03:00:39.096Z,1.40
2023-01-06T03:03:09.252Z,1.40
2023-01-06T03:05:36.571Z,1.60
2023-01-06T03:08:07.039Z,1.40
2023-01-06T03:10:33.766Z,1.80
2023-01-06T03:13:07.319Z,1.30
2023-01-06T03:15:34.452Z,1.70
2023-01-06T03:18:01.709Z,1.90
2023-01-06T03:20:28.522Z,2.30
2023-01-06T03:22:55.189Z,2.40
2023-01-06T03:25:22.232Z,2.40
2023-01-06T03:27:49.328Z,2.00
2023-01-06T03:32:56.389Z,2.30
2023-01-06T03:35:52.007Z,2.90
2023-01-06T03:38:34.541Z,2.50
2023-01-06T03:41:10.756Z,2.90
2023-01-06T03:43:42.100Z,2.30
2023-01-06T03:46:30.753Z,2.40
2023-01-06T03:49:04.704Z,3.20
2023-01-06T03:51:50.413Z,2.70
2023-01-06T03:54:30.739Z,2.50
2023-01-06T03:57:06.125Z,2.80
2023-01-06T03:59:35.144Z,3.30
2023-01-06T04:02:02.951Z,4.90
2023-01-06T04:04:30.327Z,3.60
2023-01-06T04:06:57.917Z,3.40
2023-01-06T04:09:25.213Z,3.40
2023-01-06T04:14:38.462Z,3.40
2023-01-06T04:17:05.730Z,3.30
2023-01-06T04:19:32.828Z,2.90
2023-01-06T04:21:59.883Z,3.60
2023-01-06T04:24:28.529Z,3.50
2023-01-06T04:26:56.013Z,4.20
2023-01-06T04:29:22.802Z,4.70
2023-01-06T04:31:50.127Z,4.00
2023-01-06T04:39:11.576Z,6.30
2023-01-06T04:41:38.294Z,6.90
2023-01-06T04:44:05.177Z,5.90
2023-01-06T04:48:58.523Z,6.90
2023-01-06T04:51:25.267Z,7.10
2023-01-06T04:53:51.989Z,9.20
2023-01-06T04:56:20.707Z,7.40
2023-01-06T04:58:47.499Z,8.20
2023-01-06T05:03:41.193Z,6.50
2023-01-06T05:08:39.106Z,8.30
2023-01-06T05:11:11.499Z,6.70
2023-01-06T05:13:38.410Z,7.30
2023-01-06T05:18:35.607Z,8.80
2023-01-06T05:23:28.916Z,7.70
2023-01-06T05:25:55.716Z,7.90
2023-01-06T05:28:22.540Z,8.20
2023-01-06T05:33:15.834Z,5.20
2023-01-06T05:35:42.542Z,5.60
2023-01-06T05:38:09.224Z,7.80
2023-01-06T05:40:36.004Z,5.80
2023-01-06T05:43:02.725Z,9.10
2023-01-06T05:47:57.867Z,7.70
2023-01-06T05:50:24.638Z,12.10
2023-01-06T05:55:18.013Z,7.60
2023-01-06T05:57:44.705Z,6.80
2023-01-06T06:00:12.075Z,5.70
2023-01-06T06:02:41.557Z,5.60
2023-01-06T06:05:08.369Z,6.10
2023-01-06T06:10:02.071Z,4.50
2023-01-06T06:12:28.939Z,4.10
2023-01-06T06:17:22.661Z,3.80
2023-01-06T06:22:16.063Z,7.00
2023-01-06T06:24:42.721Z,5.60
2023-01-06T06:27:09.520Z,5.30
2023-01-06T06:32:02.800Z,4.10
2023-01-06T06:34:29.498Z,4.10
2023-01-06T06:36:56.201Z,2.90
2023-01-06T06:39:23.196Z,6.70
2023-01-06T06:41:49.980Z,4.30
2023-01-06T06:44:16.705Z,5.30
2023-01-06T06:46:43.429Z,3.90
2023-01-06T06:49:10.217Z,4.20
2023-01-06T06:54:04.517Z,4.80
2023-01-06T06:56:31.211Z,4.70
2023-01-06T06:58:57.903Z,3.50
2023-01-06T07:01:24.742Z,4.50
2023-01-06T07:06:20.011Z,3.30
2023-01-06T07:08:46.998Z,4.20
2023-01-06T07:11:13.830Z,3.50
2023-01-06T07:16:07.493Z,5.50
2023-01-06T07:21:00.920Z,5.70
2023-01-06T07:23:27.628Z,4.80
2023-01-06T07:25:55.125Z,5.80
2023-01-06T07:28:22.094Z,5.90
2023-01-06T07:30:48.847Z,4.80
2023-01-06T07:35:42.483Z,6.20
2023-01-06T07:40:36.414Z,3.50
2023-01-06T07:43:06.856Z,3.80
2023-01-06T07:45:33.693Z,5.50
2023-01-06T07:50:27.175Z,4.00
2023-01-06T07:55:20.805Z,5.90
2023-01-06T07:57:47.509Z,4.30
2023-01-06T08:00:14.920Z,4.10
2023-01-06T08:02:41.682Z,9.50
2023-01-06T08:07:35.500Z,7.70
2023-01-06T08:10:02.313Z,7.00
2023-01-06T08:12:28.980Z,7.10
2023-01-06T08:14:55.694Z,5.20
2023-01-06T08:17:22.364Z,5.90
2023-01-06T08:19:49.056Z,6.70
2023-01-06T08:22:15.711Z,7.00
2023-01-06T08:24:42.382Z,4.40
2023-01-06T08:27:09.265Z,6.10
2023-01-06T08:32:10.260Z,8.10
2023-01-06T08:34:38.110Z,7.90
2023-01-06T08:37:04.852Z,5.90
2023-01-06T08:39:31.618Z,8.60
2023-01-06T08:41:58.328Z,7.90
2023-01-06T08:44:25.039Z,8.40
2023-01-06T08:46:51.763Z,9.50
2023-01-06T08:49:18.539Z,8.50
2023-01-06T08:51:45.259Z,9.30
2023-01-06T08:54:12.009Z,7.80
2023-01-06T08:56:39.070Z,8.10
2023-01-06T08:59:05.820Z,9.50
2023-01-06T09:01:34.502Z,8.40
2023-01-06T09:04:02.816Z,8.10
2023-01-06T09:06:29.608Z,8.80
2023-01-06T09:08:57.005Z,7.40
2023-01-06T09:11:23.795Z,11.70
2023-01-06T09:16:20.403Z,6.20
2023-01-06T09:18:50.423Z,8.40
2023-01-06T09:21:18.144Z,7.80
2023-01-06T09:23:44.917Z,8.60
2023-01-06T09:26:11.615Z,7.10
2023-01-06T09:28:38.334Z,6.50
2023-01-06T09:31:05.210Z,5.40
2023-01-06T09:35:58.565Z,5.10
2023-01-06T09:38:26.323Z,5.40
2023-01-06T09:41:08.257Z,8.60
2023-01-06T09:43:55.556Z,4.60
2023-01-06T09:46:28.860Z,3.20
2023-01-06T09:49:01.743Z,4.80
2023-01-06T09:51:28.427Z,4.00
2023-01-06T09:54:34.965Z,5.30
2023-01-06T09:57:06.362Z,5.90
2023-01-06T09:59:36.174Z,4.00
2023-01-06T10:02:03.011Z,7.50
2023-01-06T10:07:15.439Z,4.50
2023-01-06T10:10:14.934Z,7.70
2023-01-06T10:12:47.511Z,5.50
2023-01-06T10:15:36.780Z,6.20
2023-01-06T10:18:26.717Z,5.50
2023-01-06T10:21:07.575Z,6.90
2023-01-06T10:23:37.286Z,6.80
2023-01-06T10:26:22.563Z,7.10
2023-01-06T10:28:53.275Z,9.10
2023-01-06T10:31:22.288Z,8.70
2023-01-06T10:33:51.689Z,7.30
2023-01-06T10:36:21.122Z,6.30
2023-01-06T10:38:49.844Z,6.40
2023-01-06T10:41:43.416Z,7.10
2023-01-06T10:44:11.055Z,4.60
2023-01-06T10:46:39.225Z,5.30
2023-01-06T10:49:12.669Z,9.20
2023-01-06T10:51:40.679Z,5.50
2023-01-06T10:54:10.264Z,5.00
2023-01-06T10:56:37.030Z,4.80
2023-01-06T10:59:10.466Z,3.60
2023-01-06T11:01:51.499Z,2.80
2023-01-06T11:04:19.875Z,3.70
2023-01-06T11:06:56.750Z,5.20
2023-01-06T11:09:25.419Z,2.60
2023-01-06T11:11:52.512Z,4.20
2023-01-06T11:14:20.725Z,3.30
2023-01-06T11:17:14.553Z,3.30
2023-01-06T11:19:42.797Z,4.10
2023-01-06T11:22:37.115Z,3.40
2023-01-06T11:25:21.901Z,4.20
2023-01-06T11:27:52.548Z,2.50
2023-01-06T11:30:26.610Z,2.50
2023-01-06T11:32:53.564Z,1.90
2023-01-06T11:35:21.466Z,4.60
2023-01-06T11:37:48.178Z,2.00
2023-01-06T11:40:21.327Z,3.00
2023-01-06T11:42:49.295Z,3.50
2023-01-06T11:45:30.363Z,2.20
2023-01-06T11:47:57.075Z,4.60
2023-01-06T11:50:23.740Z,3.50
2023-01-06T11:53:00.779Z,3.00
2023-01-06T11:55:27.526Z,5.60
2023-01-06T11:58:04.343Z,8.80
2023-01-06T12:00:46.817Z,7.70
2023-01-06T12:03:21.441Z,4.90
2023-01-06T12:06:07.040Z,2.70
2023-01-06T12:08:40.655Z,2.90
2023-01-06T12:11:24.269Z,4.70
2023-01-06T12:14:08.848Z,2.80
2023-01-06T12:16:49.368Z,3.50
2023-01-06T12:19:36.889Z,9.70
2023-01-06T12:22:03.675Z,17.30
2023-01-06T12:24:32.206Z,22.30
2023-01-06T12:27:01.322Z,26.10
2023-01-06T12:29:27.994Z,20.30
2023-01-06T12:32:04.965Z,10.20
2023-01-06T12:34:36.596Z,5.50
2023-01-06T12:37:12.504Z,3.80
2023-01-06T12:39:50.748Z,3.40
2023-01-06T12:42:26.484Z,5.30
2023-01-06T12:45:12.968Z,4.10
2023-01-06T12:47:46.916Z,5.60
2023-01-06T12:50:33.189Z,4.10
2023-01-06T12:53:20.620Z,4.60
2023-01-06T12:55:57.761Z,3.50
2023-01-06T12:58:36.747Z,4.50
2023-01-06T13:01:16.920Z,4.20
2023-01-06T13:04:11.705Z,5.20
2023-01-06T13:06:44.331Z,6.50
2023-01-06T13:09:54.570Z,7.90
2023-01-06T13:12:30.207Z,3.50
2023-01-06T13:15:03.842Z,5.70
2023-01-06T13:17:36.558Z,5.00
2023-01-06T13:20:06.032Z,4.90
2023-01-06T13:22:41.661Z,5.10
2023-01-06T13:25:51.973Z,5.00
2023-01-06T13:28:39.905Z,5.30
2023-01-06T13:31:26.150Z,4.00
2023-01-06T13:34:14.559Z,5.10
2023-01-06T13:36:49.861Z,43.20
2023-01-06T13:39:23.700Z,10.80
2023-01-06T13:41:55.077Z,10.90
2023-01-06T13:44:24.788Z,6.60
2023-01-06T13:46:52.632Z,16.60
2023-01-06T13:49:19.527Z,5.30
2023-01-06T13:51:46.267Z,4.00
2023-01-06T13:54:40.795Z,11.50
2023-01-06T13:57:22.314Z,8.30
2023-01-06T13:59:52.848Z,4.90
2023-01-06T14:02:34.787Z,6.90
2023-01-06T14:05:05.707Z,5.70
2023-01-06T14:07:36.684Z,10.90
2023-01-06T14:10:05.634Z,11.20
2023-01-06T14:12:33.381Z,6.60
2023-01-06T14:15:01.863Z,4.10
2023-01-06T14:17:41.765Z,5.60
2023-01-06T14:20:30.000Z,6.40
2023-01-06T14:23:00.816Z,8.50
2023-01-06T14:25:27.558Z,7.10
2023-01-06T14:27:54.230Z,7.20
2023-01-06T14:30:30.696Z,11.30
2023-01-06T14:35:43.833Z,6.20
2023-01-06T14:38:19.737Z,11.50
2023-01-06T14:40:51.946Z,15.50
2023-01-06T14:43:35.106Z,23.00
2023-01-06T14:46:41.607Z,11.40
2023-01-06T14:49:14.965Z,14.30
2023-01-06T14:52:39.205Z,8.90
2023-01-06T14:55:10.908Z,8.00
2023-01-06T14:57:41.041Z,9.40
2023-01-06T15:00:24.589Z,6.10
2023-01-06T15:02:53.467Z,13.70
2023-01-06T15:05:24.530Z,24.20
2023-01-06T15:07:58.930Z,14.80
2023-01-06T15:10:27.025Z,11.80
2023-01-06T15:12:57.005Z,25.80
2023-01-06T15:15:33.340Z,30.20
2023-01-06T15:18:01.296Z,33.50
2023-01-06T15:20:31.336Z,14.20
2023-01-06T15:22:59.885Z,16.50
2023-01-06T15:25:28.057Z,18.10
2023-01-06T15:27:55.811Z,9.70
2023-01-06T15:30:24.275Z,10.40
2023-01-06T15:32:51.511Z,9.90
2023-01-06T15:35:24.143Z,6.30
2023-01-06T15:37:58.083Z,6.90
2023-01-06T15:40:24.783Z,8.20
2023-01-06T15:42:51.449Z,10.30
2023-01-06T15:45:29.297Z,8.70
2023-01-06T15:47:56.471Z,8.80
2023-01-06T15:50:25.570Z,8.90
2023-01-06T15:52:55.273Z,9.30
2023-01-06T15:55:35.765Z,10.80
2023-01-06T15:58:10.350Z,7.80
2023-01-06T16:00:50.569Z,5.20
2023-01-06T16:03:18.482Z,5.40
2023-01-06T16:05:48.735Z,11.30
2023-01-06T16:08:24.297Z,11.30
2023-01-06T16:11:47.637Z,5.60
2023-01-06T16:14:28.699Z,7.40
2023-01-06T16:17:18.738Z,12.40
2023-01-06T16:19:46.710Z,20.20
2023-01-06T16:22:38.272Z,18.70
2023-01-06T16:25:18.623Z,14.70
2023-01-06T16:27:49.747Z,16.10
2023-01-06T16:30:23.845Z,12.90
2023-01-06T16:32:52.633Z,13.20
2023-01-06T16:35:23.867Z,14.10
2023-01-06T16:37:50.650Z,8.50
2023-01-06T16:42:44.574Z,7.00
2023-01-06T16:47:55.265Z,7.20
2023-01-06T16:50:31.095Z,11.20
2023-01-06T16:53:21.201Z,8.10
2023-01-06T16:55:52.559Z,6.10
2023-01-06T16:58:20.867Z,4.70
2023-01-06T17:00:52.254Z,5.20
2023-01-06T17:03:21.037Z,5.30
2023-01-06T17:05:47.767Z,3.40
2023-01-06T17:08:15.559Z,4.70
2023-01-06T17:10:42.819Z,10.90
2023-01-06T17:13:31.819Z,8.90
2023-01-06T17:16:10.806Z,5.30
2023-01-06T17:18:59.373Z,4.50
2023-01-06T17:21:29.240Z,4.00
2023-01-06T17:24:16.753Z,4.20
2023-01-06T17:26:52.785Z,6.90
2023-01-06T17:29:20.334Z,4.90
2023-01-06T17:31:48.989Z,5.80
2023-01-06T17:34:25.071Z,6.30
2023-01-06T17:36:52.943Z,6.60
2023-01-06T17:39:21.676Z,8.60
2023-01-06T17:41:48.542Z,6.20
2023-01-06T17:44:19.735Z,6.00
2023-01-06T17:46:46.556Z,9.00
2023-01-06T17:51:46.272Z,12.30
2023-01-06T17:54:38.147Z,29.40
2023-01-06T17:57:19.001Z,26.60
2023-01-06T17:59:46.004Z,26.60
2023-01-06T18:02:35.496Z,21.20
2023-01-06T18:05:34.754Z,14.80
2023-01-06T18:08:07.495Z,12.70
2023-01-06T18:10:35.717Z,14.00
2023-01-06T18:13:35.180Z,41.90
2023-01-06T18:16:01.975Z,16.30
2023-01-06T18:21:16.125Z,7.00
2023-01-06T18:23:47.215Z,11.80
2023-01-06T18:26:26.182Z,10.50
2023-01-06T18:28:57.628Z,22.40
2023-01-06T18:31:24.401Z,10.20
2023-01-06T18:36:17.823Z,8.50
2023-01-06T18:38:45.341Z,8.70
2023-01-06T18:41:12.322Z,8.00
2023-01-06T18:43:39.255Z,24.10
2023-01-06T18:46:16.507Z,14.10
2023-01-06T18:51:19.917Z,11.30
2023-01-06T18:53:49.817Z,4.70
2023-01-06T18:56:27.091Z,7.50
2023-01-06T19:01:38.468Z,6.10
2023-01-06T19:04:11.323Z,5.90
2023-01-06T19:07:09.993Z,15.30
2023-01-06T19:09:39.992Z,6.20
2023-01-06T19:12:30.315Z,7.50
2023-01-06T19:14:59.486Z,7.20
2023-01-06T19:17:33.983Z,14.50
2023-01-06T19:20:01.452Z,8.00
2023-01-06T19:22:28.906Z,5.50
2023-01-06T19:24:57.351Z,6.20
2023-01-06T19:27:25.469Z,8.90
2023-01-06T19:29:52.808Z,18.00
2023-01-06T19:32:19.536Z,12.70
2023-01-06T19:37:17.183Z,10.40
2023-01-06T19:39:47.516Z,8.20
2023-01-06T19:42:30.204Z,6.10
2023-01-06T19:44:58.301Z,8.20
2023-01-06T19:47:29.161Z,8.40
2023-01-06T19:49:59.917Z,15.80
2023-01-06T19:52:34.850Z,4.90
2023-01-06T19:55:25.349Z,8.10
2023-01-06T19:57:57.498Z,9.70
2023-01-06T20:00:43.145Z,6.60
2023-01-06T20:03:29.001Z,4.40
2023-01-06T20:05:55.908Z,6.40
2023-01-06T20:08:23.227Z,4.80
2023-01-06T20:10:49.923Z,4.50
2023-01-06T20:13:16.824Z,13.60
2023-01-06T20:15:43.627Z,22.80
2023-01-06T20:18:10.305Z,17.20
2023-01-06T20:20:37.177Z,42.60
2023-01-06T20:23:04.351Z,18.40
2023-01-06T20:25:31.150Z,10.60
2023-01-06T20:30:24.941Z,5.60
2023-01-06T20:35:20.185Z,6.90
2023-01-06T20:37:46.981Z,12.50
2023-01-06T20:42:40.457Z,11.50
2023-01-06T20:47:34.008Z,20.50
2023-01-06T20:50:00.806Z,8.30
2023-01-06T20:54:54.290Z,10.50
2023-01-06T20:59:47.932Z,6.50
2023-01-06T21:02:14.796Z,8.20
2023-01-06T21:04:41.762Z,6.00
2023-01-06T21:07:08.508Z,5.30
2023-01-06T21:09:35.266Z,6.50
2023-01-06T21:12:01.942Z,7.70
2023-01-06T21:14:29.558Z,8.80
2023-01-06T21:16:56.317Z,7.00
2023-01-06T21:21:49.914Z,6.60
2023-01-06T21:24:16.877Z,7.50
2023-01-06T21:26:43.719Z,7.90
2023-01-06T21:29:10.459Z,7.00
2023-01-06T21:31:37.271Z,7.10
2023-01-06T21:36:30.687Z,7.20
2023-01-06T21:41:42.956Z,6.90
2023-01-06T21:44:09.656Z,7.10
2023-01-06T21:46:39.863Z,6.60
2023-01-06T21:49:06.889Z,9.20
2023-01-06T21:51:34.001Z,11.70
2023-01-06T21:54:00.719Z,9.60
2023-01-06T21:58:55.316Z,6.50
2023-01-06T22:01:22.264Z,8.10
2023-01-06T22:03:49.084Z,4.00
2023-01-06T22:08:46.251Z,2.80
2023-01-06T22:11:13.235Z,10.20
2023-01-06T22:16:07.464Z,5.90
2023-01-06T22:18:34.481Z,7.20
2023-01-06T22:21:01.198Z,9.50
2023-01-06T22:23:27.976Z,8.40
2023-01-06T22:25:54.871Z,6.80
2023-01-06T22:28:21.575Z,6.50
2023-01-06T22:30:48.319Z,8.30
2023-01-06T22:35:42.328Z,7.90
2023-01-06T22:38:09.056Z,10.50
2023-01-06T22:40:35.916Z,9.90
2023-01-06T22:45:30.819Z,13.70
2023-01-06T22:50:24.139Z,7.60
2023-01-06T22:52:50.913Z,8.80
2023-01-06T22:55:17.724Z,6.60
2023-01-06T23:00:14.123Z,6.20
2023-01-06T23:02:41.093Z,9.20
2023-01-06T23:05:08.304Z,5.60
2023-01-06T23:07:42.385Z,9.10
2023-01-06T23:10:10.357Z,8.60
2023-01-06T23:12:37.980Z,7.80
2023-01-06T23:15:05.272Z,6.10
2023-01-06T23:17:32.020Z,14.80
2023-01-06T23:22:25.415Z,8.90
2023-01-06T23:27:19.038Z,12.60
2023-01-06T23:29:46.284Z,8.00
2023-01-06T23:32:13.065Z,11.30
2023-01-06T23:37:06.398Z,12.10
2023-01-06T23:41:59.738Z,10.80
2023-01-06T23:46:53.384Z,7.90
2023-01-06T23:51:46.772Z,8.70
2023-01-06T23:56:40.245Z,6.60
